Time;durP1;ratioP1;P1;durP2;ratioP2;P2;SDS_P1;SDS_P2;PMS_P1;PMS_P2;Temp;Humidity;BMP_temperature;BMP_pressure;BME280_temperature;BME280_humidity;BME280_pressure;Samples;Min_cycle;Max_cycle;Signal;HPM_P1;HPM_P2
2022/01/23 00:01:09;;;;;;;27.33;13.37;;;;;;;;;;777596;177;919752;-66
2022/01/23 00:03:27;;;;;;;35.95;13.88;;;;;;;;;;778397;178;919003;-66
2022/01/23 00:05:53;;;;;;;47.42;23.70;;;;;;;;;;775013;178;918584;-65
2022/01/23 00:08:21;;;;;;;26.60;13.80;;;;;;;;;;790761;177;919034;-66
2022/01/23 00:10:45;;;;;;;22.90;12.32;;;;;;;;;;789107;174;918764;-65
2022/01/23 00:13:23;;;;;;;19.20;10.23;;;;;;;;;;778373;177;919560;-67
2022/01/23 00:18:10;;;;;;;37.33;15.67;;;;;;;;;;779010;177;919366;-66
2022/01/23 00:20:36;;;;;;;22.80;9.67;;;;;;;;;;786541;176;945739;-66
2022/01/23 00:23:12;;;;;;;20.20;10.90;;;;;;;;;;782162;177;919317;-66
2022/01/23 00:30:32;;;;;;;21.47;10.70;;;;;;;;;;778269;179;919606;-66
2022/01/23 00:32:58;;;;;;;19.73;10.20;;;;;;;;;;777997;179;918905;-66
2022/01/23 00:35:24;;;;;;;16.53;9.70;;;;;;;;;;784906;177;918246;-66
2022/01/23 00:37:49;;;;;;;21.70;9.60;;;;;;;;;;785296;177;920784;-64
2022/01/23 00:40:15;;;;;;;21.13;11.10;;;;;;;;;;777443;177;918431;-66
2022/01/23 00:42:41;;;;;;;19.17;11.30;;;;;;;;;;782524;177;919012;-66
2022/01/23 00:45:27;;;;;;;19.60;9.97;;;;;;;;;;780591;177;920503;-66
2022/01/23 00:47:50;;;;;;;17.43;9.87;;;;;;;;;;783988;176;919557;-66
2022/01/23 00:50:13;;;;;;;16.90;9.40;;;;;;;;;;779852;177;915985;-66
2022/01/23 00:52:39;;;;;;;25.90;10.00;;;;;;;;;;783375;176;915785;-66
2022/01/23 00:55:05;;;;;;;15.00;9.17;;;;;;;;;;780180;177;918956;-65
2022/01/23 00:57:33;;;;;;;22.53;9.60;;;;;;;;;;779423;177;918447;-67
2022/01/23 00:59:57;;;;;;;21.33;10.60;;;;;;;;;;779090;177;919157;-65
2022/01/23 01:02:23;;;;;;;21.43;10.40;;;;;;;;;;779866;176;919002;-65
2022/01/23 01:04:49;;;;;;;21.30;9.87;;;;;;;;;;780429;176;1022274;-67
2022/01/23 01:07:14;;;;;;;21.03;9.80;;;;;;;;;;781872;176;918353;-66
2022/01/23 01:09:43;;;;;;;23.40;11.10;;;;;;;;;;787814;176;919429;-67
2022/01/23 01:12:09;;;;;;;21.23;11.10;;;;;;;;;;757005;180;918747;-67
2022/01/23 01:14:56;;;;;;;27.77;12.80;;;;;;;;;;777813;177;919554;-66
2022/01/23 01:17:09;;;;;;;21.97;13.30;;;;;;;;;;784874;176;917996;-66
2022/01/23 01:32:08;;;;;;;27.80;13.80;;;;;;;;;;779709;176;918679;-67
2022/01/23 01:34:38;;;;;;;30.33;14.27;;;;;;;;;;784503;175;919576;-66
2022/01/23 01:36:56;;;;;;;24.43;13.67;;;;;;;;;;782343;176;918872;-66
2022/01/23 01:39:23;;;;;;;24.77;13.60;;;;;;;;;;775095;179;918838;-67
2022/01/23 01:41:49;;;;;;;33.43;16.30;;;;;;;;;;774878;177;918355;-66
2022/01/23 01:44:15;;;;;;;30.73;15.50;;;;;;;;;;777353;177;918457;-65
2022/01/23 01:46:40;;;;;;;29.58;16.45;;;;;;;;;;786955;176;859607;-67
2022/01/23 01:49:06;;;;;;;26.07;15.60;;;;;;;;;;767370;180;919651;-66
2022/01/23 01:51:33;;;;;;;30.17;14.93;;;;;;;;;;767522;180;918905;-66
2022/01/23 01:54:05;;;;;;;29.90;16.27;;;;;;;;;;784078;177;918743;-65
2022/01/23 01:56:24;;;;;;;35.27;16.93;;;;;;;;;;778007;177;919497;-67
2022/01/23 01:59:13;;;;;;;30.77;17.92;;;;;;;;;;779707;177;919120;-66
2022/01/23 02:09:26;;;;;;;41.90;20.37;;;;;;;;;;785289;176;919593;-65
2022/01/23 02:14:37;;;;;;;46.97;20.93;;;;;;;;;;782410;176;919084;-66
2022/01/23 02:17:14;;;;;;;41.13;21.67;;;;;;;;;;778916;177;1028864;-66
2022/01/23 02:24:49;;;;;;;38.87;20.50;;;;;;;;;;781143;176;919342;-66
2022/01/23 02:52:29;;;;;;;38.00;22.13;;;;;;;;;;784947;176;918533;-66
2022/01/23 02:54:51;;;;;;;45.93;21.80;;;;;;;;;;775436;177;919040;-66
2022/01/23 02:57:06;;;;;;;38.55;21.75;;;;;;;;;;768988;182;918691;-65
2022/01/23 02:59:35;;;;;;;37.23;22.07;;;;;;;;;;775224;176;918394;-66
2022/01/23 03:02:08;;;;;;;37.10;22.60;;;;;;;;;;755504;183;1021325;-67
2022/01/23 03:04:27;;;;;;;44.20;24.00;;;;;;;;;;775767;179;919037;-66
2022/01/23 03:07:12;;;;;;;35.00;22.50;;;;;;;;;;784654;177;631154;-66
2022/01/23 03:09:50;;;;;;;48.20;21.20;;;;;;;;;;783315;177;918765;-66
2022/01/23 03:30:16;;;;;;;36.95;19.95;;;;;;;;;;767691;181;918691;-66
2022/01/23 03:32:39;;;;;;;34.45;19.98;;;;;;;;;;784418;177;919366;-66
2022/01/23 03:34:59;;;;;;;39.83;22.60;;;;;;;;;;773895;180;919123;-66
2022/01/23 03:37:25;;;;;;;39.30;20.20;;;;;;;;;;783121;176;918140;-66
2022/01/23 03:39:51;;;;;;;36.17;20.67;;;;;;;;;;789114;174;918575;-65
2022/01/23 03:42:17;;;;;;;33.80;20.10;;;;;;;;;;784699;176;918959;-65
2022/01/23 03:44:56;;;;;;;36.43;22.37;;;;;;;;;;773673;181;919465;-66
2022/01/23 03:47:20;;;;;;;33.70;20.67;;;;;;;;;;784332;175;919477;-66
2022/01/23 03:49:37;;;;;;;37.43;19.47;;;;;;;;;;781514;176;919180;-66
2022/01/23 03:52:06;;;;;;;38.30;19.43;;;;;;;;;;778497;180;918510;-65
2022/01/23 03:54:31;;;;;;;34.07;20.93;;;;;;;;;;768537;179;917756;-66
2022/01/23 03:56:57;;;;;;;43.55;19.62;;;;;;;;;;764923;182;918753;-66
2022/01/23 03:59:23;;;;;;;36.43;19.60;;;;;;;;;;755604;184;919440;-66
2022/01/23 04:01:49;;;;;;;38.10;19.27;;;;;;;;;;783742;176;919115;-65
2022/01/23 04:04:36;;;;;;;32.20;18.50;;;;;;;;;;779036;177;920261;-66
2022/01/23 04:06:44;;;;;;;34.20;18.70;;;;;;;;;;778734;177;918305;-67
2022/01/23 04:09:10;;;;;;;31.87;17.70;;;;;;;;;;786573;176;918892;-66
2022/01/23 04:11:36;;;;;;;28.23;18.20;;;;;;;;;;787272;176;919258;-66
2022/01/23 04:14:07;;;;;;;31.77;18.63;;;;;;;;;;769440;180;918471;-66
2022/01/23 04:16:49;;;;;;;28.97;17.47;;;;;;;;;;766045;182;918756;-67
2022/01/23 04:19:11;;;;;;;33.50;16.87;;;;;;;;;;750106;187;918998;-65
2022/01/23 04:32:41;;;;;;;23.43;16.07;;;;;;;;;;770945;180;918443;-65
2022/01/23 04:34:34;;;;;;;38.07;16.23;;;;;;;;;;784664;176;918715;-65
2022/01/23 04:47:48;;;;;;;34.40;18.40;;;;;;;;;;776932;180;916782;-66
2022/01/23 04:59:53;;;;;;;34.47;18.20;;;;;;;;;;780683;177;919104;-65
2022/01/23 05:04:56;;;;;;;26.97;16.37;;;;;;;;;;761703;183;918943;-64
2022/01/23 05:07:27;;;;;;;31.67;18.93;;;;;;;;;;768304;180;918395;-66
2022/01/23 05:09:49;;;;;;;30.07;17.20;;;;;;;;;;778535;176;918897;-66
2022/01/23 05:12:14;;;;;;;27.70;18.50;;;;;;;;;;784779;176;919111;-65
2022/01/23 05:14:42;;;;;;;33.07;17.20;;;;;;;;;;778557;177;922377;-64
2022/01/23 05:17:05;;;;;;;33.47;19.30;;;;;;;;;;774393;177;920021;-66
2022/01/23 05:19:32;;;;;;;29.70;18.23;;;;;;;;;;779397;178;918771;-66
2022/01/23 05:22:17;;;;;;;32.80;18.57;;;;;;;;;;781967;177;920527;-65
2022/01/23 05:24:32;;;;;;;32.50;18.93;;;;;;;;;;785551;175;919046;-66
2022/01/23 05:26:51;;;;;;;30.33;17.97;;;;;;;;;;780863;175;919018;-64
2022/01/23 05:29:17;;;;;;;36.75;18.67;;;;;;;;;;797455;175;918894;-65
2022/01/23 05:31:43;;;;;;;35.57;19.40;;;;;;;;;;789800;176;919879;-65
2022/01/23 05:34:09;;;;;;;32.30;17.93;;;;;;;;;;780816;176;919688;-65
2022/01/23 05:36:35;;;;;;;33.90;18.07;;;;;;;;;;783237;177;918976;-65
2022/01/23 05:39:01;;;;;;;31.93;18.47;;;;;;;;;;779379;177;918046;-65
2022/01/23 05:41:27;;;;;;;29.23;18.52;;;;;;;;;;781114;176;937473;-63
2022/01/23 05:43:52;;;;;;;38.47;21.30;;;;;;;;;;772927;180;919281;-64
2022/01/23 05:46:18;;;;;;;58.90;19.70;;;;;;;;;;781333;177;1020880;-65
2022/01/23 05:48:44;;;;;;;36.13;19.70;;;;;;;;;;781938;176;1020997;-65
2022/01/23 05:51:12;;;;;;;32.00;18.00;;;;;;;;;;782758;176;918763;-64
2022/01/23 05:53:37;;;;;;;27.27;17.60;;;;;;;;;;783006;176;919890;-65
2022/01/23 05:56:03;;;;;;;32.57;18.73;;;;;;;;;;779279;176;919532;-65
2022/01/23 05:58:28;;;;;;;35.97;20.90;;;;;;;;;;780895;176;918730;-65
2022/01/23 06:00:54;;;;;;;34.53;19.08;;;;;;;;;;781484;179;825263;-65
2022/01/23 06:03:21;;;;;;;30.80;20.07;;;;;;;;;;779085;176;919603;-65
2022/01/23 06:05:46;;;;;;;38.08;20.52;;;;;;;;;;780190;176;920299;-65
2022/01/23 06:08:12;;;;;;;29.87;19.20;;;;;;;;;;786442;176;943685;-66
2022/01/23 06:10:53;;;;;;;34.50;20.50;;;;;;;;;;768672;179;919898;-65
2022/01/23 06:13:03;;;;;;;36.28;21.15;;;;;;;;;;755520;181;919350;-65
2022/01/23 06:15:30;;;;;;;30.60;17.85;;;;;;;;;;784478;176;915646;-63
2022/01/23 06:17:56;;;;;;;39.33;20.03;;;;;;;;;;777219;179;925139;-65
2022/01/23 06:20:22;;;;;;;33.73;18.27;;;;;;;;;;778166;176;918007;-65
2022/01/23 06:22:48;;;;;;;39.85;21.52;;;;;;;;;;778764;176;924323;-65
2022/01/23 06:25:14;;;;;;;33.83;18.33;;;;;;;;;;786569;176;1021550;-65
2022/01/23 06:27:39;;;;;;;32.40;18.57;;;;;;;;;;767868;179;919724;-65
2022/01/23 06:30:06;;;;;;;31.92;17.75;;;;;;;;;;782786;177;919018;-65
2022/01/23 06:32:31;;;;;;;28.47;17.10;;;;;;;;;;787394;176;1020579;-64
2022/01/23 06:34:57;;;;;;;30.47;17.60;;;;;;;;;;781839;176;918361;-64
2022/01/23 06:37:23;;;;;;;31.33;17.30;;;;;;;;;;780495;177;918873;-65
2022/01/23 06:39:50;;;;;;;31.47;18.27;;;;;;;;;;785118;177;918792;-64
2022/01/23 06:42:15;;;;;;;30.77;18.30;;;;;;;;;;783597;176;920057;-65
2022/01/23 06:44:41;;;;;;;37.70;20.77;;;;;;;;;;780966;177;919304;-65
2022/01/23 06:47:07;;;;;;;32.53;17.87;;;;;;;;;;767947;179;918798;-64
2022/01/23 06:49:32;;;;;;;32.53;18.03;;;;;;;;;;770633;180;918464;-65
2022/01/23 06:51:58;;;;;;;29.00;17.87;;;;;;;;;;781786;176;813741;-64
2022/01/23 06:54:26;;;;;;;31.40;16.33;;;;;;;;;;775922;176;674400;-65
2022/01/23 06:56:50;;;;;;;27.60;17.70;;;;;;;;;;785164;177;630243;-65
2022/01/23 06:59:16;;;;;;;31.37;19.27;;;;;;;;;;780199;177;914049;-65
2022/01/23 07:01:42;;;;;;;29.57;17.83;;;;;;;;;;784878;176;914080;-65
2022/01/23 07:04:07;;;;;;;35.27;19.60;;;;;;;;;;787906;176;861712;-65
2022/01/23 07:06:34;;;;;;;33.17;18.93;;;;;;;;;;779679;176;919606;-64
2022/01/23 07:08:59;;;;;;;35.93;19.23;;;;;;;;;;780827;176;919138;-65
2022/01/23 07:11:25;;;;;;;37.63;18.70;;;;;;;;;;780931;176;919734;-64
2022/01/23 07:13:51;;;;;;;101.67;49.83;;;;;;;;;;778191;177;1021207;-65
2022/01/23 07:16:17;;;;;;;45.67;28.90;;;;;;;;;;780911;177;919502;-64
2022/01/23 07:18:42;;;;;;;54.13;31.00;;;;;;;;;;781951;176;917313;-66
2022/01/23 07:21:08;;;;;;;57.57;35.70;;;;;;;;;;771508;181;918774;-64
2022/01/23 07:23:34;;;;;;;81.47;42.20;;;;;;;;;;750548;184;918496;-64
2022/01/23 07:26:00;;;;;;;46.00;27.10;;;;;;;;;;779352;176;918288;-64
2022/01/23 07:28:36;;;;;;;54.60;29.43;;;;;;;;;;782142;177;918526;-63
2022/01/23 07:30:57;;;;;;;42.47;23.80;;;;;;;;;;776901;176;919574;-65
2022/01/23 07:33:18;;;;;;;31.60;20.60;;;;;;;;;;775897;177;1021304;-65
2022/01/23 07:35:44;;;;;;;27.13;18.50;;;;;;;;;;772390;176;1893897;-61
2022/01/23 07:38:11;;;;;;;31.80;18.00;;;;;;;;;;785119;176;918401;-64
2022/01/23 07:40:36;;;;;;;127.20;52.00;;;;;;;;;;782376;177;918818;-64
2022/01/23 07:43:02;;;;;;;45.60;23.00;;;;;;;;;;779180;177;918239;-64
2022/01/23 07:45:27;;;;;;;43.00;22.80;;;;;;;;;;778833;177;919710;-64
2022/01/23 07:47:53;;;;;;;41.37;22.73;;;;;;;;;;777363;177;918111;-64
2022/01/23 07:50:19;;;;;;;40.43;20.30;;;;;;;;;;780009;177;918269;-64
2022/01/23 07:52:45;;;;;;;37.53;23.57;;;;;;;;;;783340;176;919744;-65
2022/01/23 07:55:11;;;;;;;41.53;24.37;;;;;;;;;;770238;180;917324;-64
2022/01/23 07:57:37;;;;;;;37.58;22.83;;;;;;;;;;767899;179;916954;-64
2022/01/23 08:00:03;;;;;;;36.67;20.23;;;;;;;;;;788328;177;613985;-63
2022/01/23 08:02:30;;;;;;;43.67;24.57;;;;;;;;;;781501;176;640736;-64
2022/01/23 08:04:55;;;;;;;37.80;24.57;;;;;;;;;;782001;176;628588;-64
2022/01/23 08:09:53;;;;;;;52.30;31.33;;;;;;;;;;794524;176;635407;-64
2022/01/23 08:12:18;;;;;;;54.97;30.27;;;;;;;;;;783382;176;643546;-65
2022/01/23 08:14:44;;;;;;;41.93;22.53;;;;;;;;;;785469;176;627092;-65
2022/01/23 08:17:10;;;;;;;35.50;20.73;;;;;;;;;;789957;176;675000;-67
2022/01/23 08:19:36;;;;;;;47.63;27.40;;;;;;;;;;780066;176;919611;-63
2022/01/23 08:22:02;;;;;;;66.10;30.23;;;;;;;;;;779220;177;918416;-64
2022/01/23 08:24:28;;;;;;;51.93;28.77;;;;;;;;;;784416;176;919015;-64
2022/01/23 08:26:53;;;;;;;61.78;32.20;;;;;;;;;;796852;176;919257;-63
2022/01/23 08:29:19;;;;;;;42.80;21.63;;;;;;;;;;785408;176;919548;-63
2022/01/23 08:31:45;;;;;;;35.63;20.00;;;;;;;;;;781100;177;917877;-63
2022/01/23 08:34:11;;;;;;;31.77;20.80;;;;;;;;;;784154;177;918548;-62
2022/01/23 08:36:37;;;;;;;34.67;20.33;;;;;;;;;;781932;176;919463;-62
2022/01/23 08:39:03;;;;;;;31.73;20.10;;;;;;;;;;778971;177;919603;-61
2022/01/23 08:44:01;;;;;;;37.90;22.77;;;;;;;;;;787433;176;918512;-62
2022/01/23 08:46:26;;;;;;;35.73;21.90;;;;;;;;;;779022;176;919226;-60
2022/01/23 08:48:52;;;;;;;42.27;22.80;;;;;;;;;;781103;177;993680;-62
2022/01/23 08:51:18;;;;;;;45.53;27.80;;;;;;;;;;783819;177;917682;-62
2022/01/23 08:53:44;;;;;;;42.00;25.77;;;;;;;;;;779355;177;918719;-62
2022/01/23 08:56:10;;;;;;;50.70;28.80;;;;;;;;;;778265;177;1015330;-61
2022/01/23 08:58:35;;;;;;;53.63;30.47;;;;;;;;;;786177;177;1017157;-62
2022/01/23 09:01:01;;;;;;;60.43;36.07;;;;;;;;;;783131;177;915808;-61
2022/01/23 09:03:27;;;;;;;26.33;15.75;;;;;;;;;;786467;176;918733;-62
2022/01/23 09:05:53;;;;;;;24.30;13.97;;;;;;;;;;763914;180;913992;-61
2022/01/23 09:08:21;;;;;;;28.13;16.20;;;;;;;;;;783876;176;925135;-62
2022/01/23 09:10:53;;;;;;;21.27;13.20;;;;;;;;;;783200;176;919399;-62
2022/01/23 09:13:27;;;;;;;22.10;14.77;;;;;;;;;;782826;176;926208;-61
2022/01/23 09:15:37;;;;;;;18.87;11.20;;;;;;;;;;770283;180;1021236;-61
2022/01/23 09:18:03;;;;;;;29.07;17.40;;;;;;;;;;781413;177;920073;-62
2022/01/23 09:20:29;;;;;;;27.57;15.50;;;;;;;;;;780059;177;920371;-62
2022/01/23 09:22:54;;;;;;;22.87;14.10;;;;;;;;;;785038;177;1021113;-61
2022/01/23 09:25:21;;;;;;;23.80;13.93;;;;;;;;;;787757;176;919584;-62
2022/01/23 09:27:46;;;;;;;29.25;15.70;;;;;;;;;;787485;176;918673;-63
2022/01/23 09:30:17;;;;;;;42.70;25.33;;;;;;;;;;786266;176;919368;-63
2022/01/23 09:32:43;;;;;;;41.63;23.77;;;;;;;;;;788852;176;918983;-63
2022/01/23 09:35:08;;;;;;;52.33;29.43;;;;;;;;;;779406;176;918910;-63
2022/01/23 09:37:34;;;;;;;37.97;20.90;;;;;;;;;;778786;176;919651;-63
2022/01/23 09:40:00;;;;;;;45.57;25.43;;;;;;;;;;786091;177;909479;-64
2022/01/23 09:42:27;;;;;;;44.03;22.27;;;;;;;;;;779806;176;918916;-65
2022/01/23 09:44:53;;;;;;;50.27;24.30;;;;;;;;;;779217;176;920031;-65
2022/01/23 09:47:20;;;;;;;53.97;26.50;;;;;;;;;;785513;176;920903;-65
2022/01/23 09:49:45;;;;;;;36.33;20.27;;;;;;;;;;768110;179;916810;-66
2022/01/23 09:52:12;;;;;;;47.97;26.73;;;;;;;;;;783717;176;918884;-66
2022/01/23 09:54:37;;;;;;;47.60;27.20;;;;;;;;;;786038;176;1020335;-66
2022/01/23 09:57:03;;;;;;;45.20;22.70;;;;;;;;;;786898;176;918720;-66
2022/01/23 09:59:29;;;;;;;32.90;18.83;;;;;;;;;;782904;177;919307;-66
2022/01/23 10:01:56;;;;;;;33.42;17.27;;;;;;;;;;784676;177;919047;-66
2022/01/23 10:04:21;;;;;;;35.87;19.83;;;;;;;;;;770830;181;918182;-66
2022/01/23 10:06:46;;;;;;;33.90;17.90;;;;;;;;;;780235;177;919632;-67
2022/01/23 10:09:12;;;;;;;37.00;19.70;;;;;;;;;;781048;177;917218;-67
2022/01/23 10:11:41;;;;;;;38.67;18.17;;;;;;;;;;787132;177;919053;-67
2022/01/23 10:14:04;;;;;;;27.60;17.23;;;;;;;;;;778951;177;918546;-66
2022/01/23 10:16:30;;;;;;;45.93;24.30;;;;;;;;;;777809;177;926360;-67
2022/01/23 10:18:56;;;;;;;21.57;14.13;;;;;;;;;;770393;179;919552;-67
2022/01/23 10:21:22;;;;;;;18.10;10.00;;;;;;;;;;786867;175;922993;-67
2022/01/23 10:23:47;;;;;;;17.73;11.43;;;;;;;;;;778081;176;918962;-67
2022/01/23 10:26:13;;;;;;;19.92;11.63;;;;;;;;;;783250;177;914973;-67
2022/01/23 10:28:39;;;;;;;21.20;11.37;;;;;;;;;;777905;179;915833;-66
2022/01/23 10:31:05;;;;;;;30.53;14.37;;;;;;;;;;775742;176;919305;-65
2022/01/23 10:33:32;;;;;;;20.25;12.10;;;;;;;;;;775494;177;918257;-65
2022/01/23 10:36:07;;;;;;;26.07;12.30;;;;;;;;;;790319;176;917735;-66
2022/01/23 10:38:49;;;;;;;18.20;12.27;;;;;;;;;;796654;176;918483;-65
2022/01/23 10:41:32;;;;;;;23.90;12.03;;;;;;;;;;791410;176;917589;-65
2022/01/23 10:46:53;;;;;;;21.27;10.77;;;;;;;;;;778070;176;918570;-65
2022/01/23 10:49:04;;;;;;;20.77;11.97;;;;;;;;;;776261;177;918690;-65
2022/01/23 10:51:30;;;;;;;17.30;10.47;;;;;;;;;;780622;176;919301;-65
2022/01/23 10:54:05;;;;;;;28.52;11.68;;;;;;;;;;784522;178;918152;-64
2022/01/23 10:56:30;;;;;;;33.87;12.73;;;;;;;;;;791808;177;918966;-64
2022/01/23 10:58:57;;;;;;;26.77;13.07;;;;;;;;;;780964;176;919239;-64
2022/01/23 11:01:23;;;;;;;24.83;14.60;;;;;;;;;;779301;177;918814;-64
2022/01/23 11:03:55;;;;;;;23.20;12.97;;;;;;;;;;785286;177;918884;-65
2022/01/23 11:06:21;;;;;;;22.50;13.17;;;;;;;;;;778569;176;920813;-64
2022/01/23 11:08:46;;;;;;;18.40;10.83;;;;;;;;;;778613;176;919974;-65
2022/01/23 11:11:12;;;;;;;25.23;14.17;;;;;;;;;;780573;177;918104;-64
2022/01/23 11:18:44;;;;;;;21.70;11.70;;;;;;;;;;780117;177;917834;-65
2022/01/23 11:21:13;;;;;;;18.00;11.77;;;;;;;;;;782978;176;918998;-65
2022/01/23 11:23:38;;;;;;;27.75;17.23;;;;;;;;;;768801;180;918188;-64
2022/01/23 11:26:07;;;;;;;20.90;11.30;;;;;;;;;;782068;176;977382;-65
2022/01/23 11:28:37;;;;;;;20.50;9.43;;;;;;;;;;777387;176;920087;-65
2022/01/23 11:31:04;;;;;;;19.27;10.73;;;;;;;;;;779589;176;925191;-65
2022/01/23 11:33:28;;;;;;;24.33;13.57;;;;;;;;;;780116;177;917711;-65
2022/01/23 11:35:54;;;;;;;16.47;10.47;;;;;;;;;;777996;177;918586;-65
2022/01/23 11:38:22;;;;;;;22.75;12.80;;;;;;;;;;769121;177;920392;-64
2022/01/23 11:53:43;;;;;;;24.50;14.30;;;;;;;;;;779897;176;920182;-64
2022/01/23 11:56:12;;;;;;;20.83;11.33;;;;;;;;;;779702;179;918706;-64
2022/01/23 11:58:40;;;;;;;19.97;10.60;;;;;;;;;;777818;178;943169;-64
2022/01/23 12:01:10;;;;;;;26.83;16.70;;;;;;;;;;775471;177;919352;-67
2022/01/23 12:03:36;;;;;;;24.20;11.50;;;;;;;;;;784722;176;923381;-64
2022/01/23 12:06:08;;;;;;;21.60;11.53;;;;;;;;;;787017;176;919392;-63
2022/01/23 12:08:35;;;;;;;31.53;14.50;;;;;;;;;;782929;177;919148;-63
2022/01/23 12:11:25;;;;;;;26.43;16.17;;;;;;;;;;786040;176;1021976;-63
2022/01/23 12:18:48;;;;;;;18.77;10.63;;;;;;;;;;780697;177;920520;-61
2022/01/23 12:21:20;;;;;;;15.23;9.43;;;;;;;;;;786685;176;919183;-63
2022/01/23 12:23:51;;;;;;;19.03;8.37;;;;;;;;;;787729;176;919002;-63
2022/01/23 12:26:17;;;;;;;16.97;8.50;;;;;;;;;;789784;176;617233;-64
2022/01/23 12:28:43;;;;;;;15.90;9.07;;;;;;;;;;782906;176;624514;-63
2022/01/23 12:31:23;;;;;;;31.53;11.00;;;;;;;;;;778505;180;614770;-64
2022/01/23 12:33:48;;;;;;;12.50;6.97;;;;;;;;;;783502;176;918843;-67
2022/01/23 12:36:23;;;;;;;14.87;8.93;;;;;;;;;;782171;177;918809;-63
2022/01/23 12:38:48;;;;;;;19.73;11.40;;;;;;;;;;786223;177;642581;-63
2022/01/23 12:41:29;;;;;;;14.43;6.63;;;;;;;;;;770450;181;918871;-63
2022/01/23 12:43:55;;;;;;;18.43;9.00;;;;;;;;;;789565;177;617155;-64
2022/01/23 12:46:30;;;;;;;19.73;10.50;;;;;;;;;;782727;177;634688;-64
2022/01/23 12:48:56;;;;;;;66.00;23.03;;;;;;;;;;785268;177;649792;-64
2022/01/23 12:51:32;;;;;;;17.90;7.87;;;;;;;;;;777299;177;918685;-64
2022/01/23 12:54:12;;;;;;;61.97;24.00;;;;;;;;;;785522;176;947226;-64
2022/01/23 12:56:43;;;;;;;21.43;9.67;;;;;;;;;;780993;176;917810;-64
2022/01/23 12:59:09;;;;;;;24.10;11.53;;;;;;;;;;788593;176;914772;-64
2022/01/23 13:01:32;;;;;;;24.47;13.27;;;;;;;;;;782556;177;916262;-64
2022/01/23 13:03:58;;;;;;;14.83;9.13;;;;;;;;;;778702;176;1021452;-63
2022/01/23 13:06:31;;;;;;;10.43;6.40;;;;;;;;;;783409;176;919724;-65
2022/01/23 13:09:24;;;;;;;31.03;14.57;;;;;;;;;;779510;178;920165;-64
2022/01/23 13:11:54;;;;;;;21.27;9.80;;;;;;;;;;767966;180;919164;-63
2022/01/23 13:14:14;;;;;;;15.87;8.23;;;;;;;;;;785938;175;920066;-63
2022/01/23 13:16:59;;;;;;;48.60;18.27;;;;;;;;;;784171;176;919510;-63
2022/01/23 13:29:57;;;;;;;17.40;9.83;;;;;;;;;;777807;179;921360;-62
2022/01/23 13:32:07;;;;;;;20.70;13.57;;;;;;;;;;776646;178;916559;-64
2022/01/23 13:34:30;;;;;;;22.97;10.63;;;;;;;;;;787122;177;919578;-63
2022/01/23 13:36:56;;;;;;;8.52;4.15;;;;;;;;;;765047;179;920081;-63
2022/01/23 13:39:22;;;;;;;13.07;5.00;;;;;;;;;;781569;176;915209;-63
2022/01/23 13:41:53;;;;;;;9.03;4.83;;;;;;;;;;777606;177;929930;-63
2022/01/23 13:50:51;;;;;;;39.63;15.60;;;;;;;;;;781595;177;919717;-63
2022/01/23 13:52:25;;;;;;;56.53;24.33;;;;;;;;;;782805;177;919943;-63
2022/01/23 13:59:49;;;;;;;30.17;14.47;;;;;;;;;;765173;181;916681;-62
2022/01/23 14:02:16;;;;;;;58.00;26.00;;;;;;;;;;780087;177;918208;-64
2022/01/23 14:04:41;;;;;;;82.95;38.80;;;;;;;;;;778963;177;1021061;-64
2022/01/23 14:07:06;;;;;;;16.23;9.97;;;;;;;;;;781493;177;1021560;-64
2022/01/23 14:09:43;;;;;;;16.80;7.47;;;;;;;;;;794866;176;920183;-65
2022/01/23 14:12:09;;;;;;;8.03;5.50;;;;;;;;;;789923;176;920587;-64
2022/01/23 14:14:34;;;;;;;9.50;6.87;;;;;;;;;;778907;176;919844;-64
2022/01/23 14:17:17;;;;;;;15.00;8.57;;;;;;;;;;778366;179;919717;-64
2022/01/23 14:19:43;;;;;;;12.00;8.50;;;;;;;;;;781795;176;918906;-64
2022/01/23 14:22:09;;;;;;;12.97;8.83;;;;;;;;;;786380;177;919440;-64
2022/01/23 14:24:34;;;;;;;22.10;7.97;;;;;;;;;;781026;176;926426;-64
2022/01/23 14:27:00;;;;;;;16.73;7.90;;;;;;;;;;788231;176;918361;-64
2022/01/23 14:29:26;;;;;;;12.90;7.30;;;;;;;;;;786762;176;918587;-64
2022/01/23 14:31:58;;;;;;;12.10;6.90;;;;;;;;;;782408;176;918370;-65
2022/01/23 14:34:24;;;;;;;11.87;6.10;;;;;;;;;;786848;176;919339;-64
2022/01/23 14:36:55;;;;;;;15.30;7.67;;;;;;;;;;778266;176;965521;-64
2022/01/23 14:39:20;;;;;;;28.23;14.93;;;;;;;;;;783278;176;919132;-64
2022/01/23 14:41:46;;;;;;;45.87;23.20;;;;;;;;;;781046;176;917146;-64
2022/01/23 14:44:15;;;;;;;57.20;29.90;;;;;;;;;;777500;177;920402;-64
2022/01/23 14:46:41;;;;;;;17.93;8.53;;;;;;;;;;779806;176;918946;-64
2022/01/23 14:49:10;;;;;;;10.37;5.20;;;;;;;;;;786560;177;918420;-63
2022/01/23 14:51:34;;;;;;;11.53;6.60;;;;;;;;;;771939;177;925343;-64
2022/01/23 14:53:59;;;;;;;16.23;8.65;;;;;;;;;;778732;177;919641;-64
2022/01/23 14:56:25;;;;;;;12.10;6.63;;;;;;;;;;783839;177;1021439;-62
2022/01/23 14:58:51;;;;;;;11.00;7.10;;;;;;;;;;777538;177;918819;-64
2022/01/23 15:01:17;;;;;;;12.37;7.83;;;;;;;;;;782264;176;951980;-64
2022/01/23 15:03:43;;;;;;;19.80;8.07;;;;;;;;;;782993;176;943554;-64
2022/01/23 15:06:08;;;;;;;26.47;16.17;;;;;;;;;;780074;176;892887;-63
2022/01/23 15:08:37;;;;;;;41.77;22.77;;;;;;;;;;777802;176;918239;-65
2022/01/23 15:11:01;;;;;;;103.20;43.07;;;;;;;;;;778860;177;919867;-64
2022/01/23 15:13:27;;;;;;;86.80;39.53;;;;;;;;;;785107;177;919299;-64
2022/01/23 15:15:52;;;;;;;136.73;56.53;;;;;;;;;;783451;176;918771;-63
2022/01/23 15:18:18;;;;;;;91.23;38.43;;;;;;;;;;782228;177;919578;-64
2022/01/23 15:20:44;;;;;;;99.90;43.45;;;;;;;;;;769544;180;918403;-64
2022/01/23 15:23:10;;;;;;;60.23;29.73;;;;;;;;;;764422;180;918317;-64
2022/01/23 15:25:36;;;;;;;20.53;11.80;;;;;;;;;;764335;180;1021388;-64
2022/01/23 15:28:02;;;;;;;18.85;8.45;;;;;;;;;;787144;176;919291;-64
2022/01/23 15:30:27;;;;;;;15.97;7.83;;;;;;;;;;778893;176;919399;-64
2022/01/23 15:32:53;;;;;;;9.90;5.80;;;;;;;;;;779116;176;917131;-64
2022/01/23 15:35:19;;;;;;;11.38;5.47;;;;;;;;;;781931;176;919036;-64
2022/01/23 15:37:45;;;;;;;33.40;12.53;;;;;;;;;;774496;179;919359;-64
2022/01/23 15:40:11;;;;;;;12.07;5.47;;;;;;;;;;775677;176;919228;-64
2022/01/23 15:42:37;;;;;;;8.77;4.50;;;;;;;;;;782062;176;1021719;-64
2022/01/23 15:45:03;;;;;;;18.57;5.37;;;;;;;;;;773790;179;918303;-64
2022/01/23 15:47:29;;;;;;;7.00;3.10;;;;;;;;;;783584;176;920109;-63
2022/01/23 15:49:55;;;;;;;14.43;8.17;;;;;;;;;;779206;176;918989;-64
2022/01/23 15:52:21;;;;;;;43.50;27.50;;;;;;;;;;785276;176;919408;-64
2022/01/23 15:54:47;;;;;;;9.80;6.30;;;;;;;;;;778256;177;919306;-64
2022/01/23 15:57:13;;;;;;;19.17;9.67;;;;;;;;;;779924;177;919410;-65
2022/01/23 15:59:39;;;;;;;12.27;5.73;;;;;;;;;;780460;177;919089;-62
2022/01/23 16:02:05;;;;;;;7.53;3.63;;;;;;;;;;786818;177;917529;-65
2022/01/23 16:04:34;;;;;;;10.00;4.73;;;;;;;;;;778887;177;1028709;-64
2022/01/23 16:06:58;;;;;;;8.03;3.93;;;;;;;;;;775305;178;921448;-64
2022/01/23 16:09:22;;;;;;;9.37;4.00;;;;;;;;;;786780;176;918838;-64
2022/01/23 16:11:48;;;;;;;15.20;6.50;;;;;;;;;;776922;177;919177;-64
2022/01/23 16:14:16;;;;;;;22.43;8.10;;;;;;;;;;779168;177;919084;-64
2022/01/23 16:16:40;;;;;;;6.30;3.90;;;;;;;;;;784336;177;861232;-65
2022/01/23 16:19:05;;;;;;;13.60;6.85;;;;;;;;;;779865;177;920000;-64
2022/01/23 16:21:31;;;;;;;11.23;3.47;;;;;;;;;;781204;177;919119;-64
2022/01/23 16:23:57;;;;;;;8.97;4.90;;;;;;;;;;785632;177;919714;-64
2022/01/23 16:26:24;;;;;;;27.70;8.40;;;;;;;;;;780162;177;920267;-65
2022/01/23 16:28:49;;;;;;;44.57;17.40;;;;;;;;;;778729;177;991590;-63
2022/01/23 16:31:15;;;;;;;55.67;18.87;;;;;;;;;;779911;177;918302;-65
2022/01/23 16:33:40;;;;;;;19.40;7.40;;;;;;;;;;784908;176;919384;-65
2022/01/23 16:36:06;;;;;;;38.07;18.20;;;;;;;;;;780450;176;918856;-64
2022/01/23 16:38:33;;;;;;;19.30;9.20;;;;;;;;;;788101;176;1021072;-65
2022/01/23 16:40:59;;;;;;;15.57;10.30;;;;;;;;;;770871;180;918891;-65
2022/01/23 16:43:25;;;;;;;14.47;7.00;;;;;;;;;;780565;176;920062;-65
2022/01/23 16:45:51;;;;;;;13.83;6.30;;;;;;;;;;782971;176;875807;-65
2022/01/23 16:48:16;;;;;;;35.70;14.90;;;;;;;;;;784874;176;919321;-64